Hlavní strana
METAR-TAF:

METAR-TAF

Letiště :

Twin County Airport

Galax / Hillsville, Virginie, Spojené státy americké

zeměpisná šířka: 36-46N, zeměpisná délka: 080-49W, výška: 834 m

Aktuální stav počasí

Zpráva byla vytvořena před 18 minutami, v 13:35 UTC
Bezvětří
Teplota 18°C
Vlhkost vzduchu 94%
Tlak 1024 hPa
Viditelnost: 16.1 km
Polojasno ve výšce 900 ft
Oblačno až skoro zataženo ve výšce 1700 ft
Zataženo ve výšce 2900 ft

METAR: KHLX 261335Z AUTO 00000KT 10SM SCT009 BKN017 OVC029 18/17 A3024 RMK AO2 T01770171

Čas: 09:53 (13:53 UTC)


TAF: chybějící

Stav a předpovědi počasí z více než 4 000 letišť (zprávy METAR a TAF).

Červené a žluté tečky na mapě představují dostupné meteorologické stanice.

Když kurzor umístíte na tečku, zobrazí se název stanice.

Pak kliknutím zobrazíte stav a předpověď počasí.

Chcete-li změnit mapu, kliknutím na zelené tlačítko se znaménkem +mapu přiblížíte, kliknutím na zelené tlačítko se znaménkem – mapu oddálíte a kliknutím na zelené šipky přejdete na sousední mapy.


METAR-TAF: